sensor_id;sensor_type;location;lat;lon;timestamp;P1;durP1;ratioP1;P2;durP2;ratioP2
71959;SDS011;59832;51.146;14.024;2024-03-08T00:01:41;41.63;;;23.40;;
71959;SDS011;59832;51.146;14.024;2024-03-08T00:04:08;47.03;;;24.45;;
71959;SDS011;59832;51.146;14.024;2024-03-08T00:06:34;45.20;;;23.92;;
71959;SDS011;59832;51.146;14.024;2024-03-08T00:09:01;44.40;;;23.90;;
71959;SDS011;59832;51.146;14.024;2024-03-08T00:11:27;47.05;;;24.83;;
71959;SDS011;59832;51.146;14.024;2024-03-08T00:13:54;44.33;;;24.37;;
71959;SDS011;59832;51.146;14.024;2024-03-08T00:16:21;42.90;;;23.92;;
71959;SDS011;59832;51.146;14.024;2024-03-08T00:18:49;46.08;;;24.67;;
71959;SDS011;59832;51.146;14.024;2024-03-08T00:21:15;48.92;;;26.17;;
71959;SDS011;59832;51.146;14.024;2024-03-08T00:23:42;49.15;;;25.48;;
71959;SDS011;59832;51.146;14.024;2024-03-08T00:26:09;46.03;;;24.50;;
71959;SDS011;59832;51.146;14.024;2024-03-08T00:28:35;46.28;;;25.40;;
71959;SDS011;59832;51.146;14.024;2024-03-08T00:31:02;49.03;;;25.57;;
71959;SDS011;59832;51.146;14.024;2024-03-08T00:33:29;45.97;;;25.93;;
71959;SDS011;59832;51.146;14.024;2024-03-08T00:35:55;47.35;;;25.60;;
71959;SDS011;59832;51.146;14.024;2024-03-08T00:38:22;45.80;;;25.10;;
71959;SDS011;59832;51.146;14.024;2024-03-08T00:40:48;50.95;;;26.45;;
71959;SDS011;59832;51.146;14.024;2024-03-08T00:43:15;49.15;;;25.00;;
71959;SDS011;59832;51.146;14.024;2024-03-08T00:45:42;51.72;;;27.45;;
71959;SDS011;59832;51.146;14.024;2024-03-08T00:48:08;55.28;;;27.80;;
71959;SDS011;59832;51.146;14.024;2024-03-08T00:50:36;55.15;;;27.33;;
71959;SDS011;59832;51.146;14.024;2024-03-08T00:53:03;60.13;;;28.27;;
71959;SDS011;59832;51.146;14.024;2024-03-08T00:55:30;54.70;;;27.65;;
71959;SDS011;59832;51.146;14.024;2024-03-08T00:57:57;57.13;;;28.98;;
71959;SDS011;59832;51.146;14.024;2024-03-08T01:00:24;52.70;;;27.95;;
71959;SDS011;59832;51.146;14.024;2024-03-08T01:02:50;52.92;;;27.50;;
71959;SDS011;59832;51.146;14.024;2024-03-08T01:05:16;58.88;;;28.95;;
71959;SDS011;59832;51.146;14.024;2024-03-08T01:07:43;53.65;;;29.40;;
71959;SDS011;59832;51.146;14.024;2024-03-08T01:10:12;54.97;;;28.92;;
71959;SDS011;59832;51.146;14.024;2024-03-08T01:12:39;53.67;;;29.40;;
71959;SDS011;59832;51.146;14.024;2024-03-08T01:15:06;59.70;;;30.27;;
71959;SDS011;59832;51.146;14.024;2024-03-08T01:17:33;52.17;;;28.17;;
71959;SDS011;59832;51.146;14.024;2024-03-08T01:20:00;54.27;;;29.33;;
71959;SDS011;59832;51.146;14.024;2024-03-08T01:22:26;57.45;;;29.30;;
71959;SDS011;59832;51.146;14.024;2024-03-08T01:24:54;59.35;;;29.33;;
71959;SDS011;59832;51.146;14.024;2024-03-08T01:27:20;55.40;;;29.08;;
71959;SDS011;59832;51.146;14.024;2024-03-08T01:29:47;57.75;;;29.40;;
71959;SDS011;59832;51.146;14.024;2024-03-08T01:32:14;55.70;;;29.98;;
71959;SDS011;59832;51.146;14.024;2024-03-08T01:34:41;60.30;;;30.00;;
71959;SDS011;59832;51.146;14.024;2024-03-08T01:37:08;57.20;;;29.65;;
71959;SDS011;59832;51.146;14.024;2024-03-08T01:39:35;53.95;;;28.75;;
71959;SDS011;59832;51.146;14.024;2024-03-08T01:42:01;59.65;;;30.92;;
71959;SDS011;59832;51.146;14.024;2024-03-08T01:44:28;66.13;;;31.43;;
71959;SDS011;59832;51.146;14.024;2024-03-08T01:46:55;67.60;;;31.40;;
71959;SDS011;59832;51.146;14.024;2024-03-08T01:49:22;65.53;;;30.63;;
71959;SDS011;59832;51.146;14.024;2024-03-08T01:51:51;63.38;;;31.67;;
71959;SDS011;59832;51.146;14.024;2024-03-08T01:54:18;65.83;;;31.90;;
71959;SDS011;59832;51.146;14.024;2024-03-08T01:56:46;62.90;;;31.35;;
71959;SDS011;59832;51.146;14.024;2024-03-08T01:59:13;59.90;;;31.17;;
71959;SDS011;59832;51.146;14.024;2024-03-08T02:01:40;60.75;;;30.88;;
71959;SDS011;59832;51.146;14.024;2024-03-08T02:04:07;66.78;;;33.05;;
71959;SDS011;59832;51.146;14.024;2024-03-08T02:06:34;64.05;;;32.88;;
71959;SDS011;59832;51.146;14.024;2024-03-08T02:09:00;64.35;;;33.15;;
71959;SDS011;59832;51.146;14.024;2024-03-08T02:11:27;70.28;;;34.30;;
71959;SDS011;59832;51.146;14.024;2024-03-08T02:13:53;61.47;;;32.20;;
71959;SDS011;59832;51.146;14.024;2024-03-08T02:16:20;67.13;;;32.30;;
71959;SDS011;59832;51.146;14.024;2024-03-08T02:18:48;67.30;;;33.30;;
71959;SDS011;59832;51.146;14.024;2024-03-08T02:21:16;67.47;;;33.95;;
71959;SDS011;59832;51.146;14.024;2024-03-08T02:23:44;66.95;;;33.60;;
71959;SDS011;59832;51.146;14.024;2024-03-08T02:26:11;66.05;;;33.50;;
71959;SDS011;59832;51.146;14.024;2024-03-08T02:28:37;67.43;;;33.22;;
71959;SDS011;59832;51.146;14.024;2024-03-08T02:31:05;69.18;;;34.05;;
71959;SDS011;59832;51.146;14.024;2024-03-08T02:33:34;69.20;;;34.50;;
71959;SDS011;59832;51.146;14.024;2024-03-08T02:36:00;69.97;;;33.55;;
71959;SDS011;59832;51.146;14.024;2024-03-08T02:38:27;64.15;;;32.55;;
71959;SDS011;59832;51.146;14.024;2024-03-08T02:40:54;67.30;;;33.50;;
71959;SDS011;59832;51.146;14.024;2024-03-08T02:43:21;63.47;;;33.37;;
71959;SDS011;59832;51.146;14.024;2024-03-08T02:45:49;65.35;;;33.10;;
71959;SDS011;59832;51.146;14.024;2024-03-08T02:48:16;66.63;;;32.38;;
71959;SDS011;59832;51.146;14.024;2024-03-08T02:50:43;74.63;;;33.65;;
71959;SDS011;59832;51.146;14.024;2024-03-08T02:53:11;66.10;;;33.50;;
71959;SDS011;59832;51.146;14.024;2024-03-08T02:55:39;66.78;;;33.75;;
71959;SDS011;59832;51.146;14.024;2024-03-08T02:58:07;67.78;;;33.60;;
71959;SDS011;59832;51.146;14.024;2024-03-08T03:00:38;63.03;;;33.00;;
71959;SDS011;59832;51.146;14.024;2024-03-08T03:03:07;66.25;;;34.58;;
71959;SDS011;59832;51.146;14.024;2024-03-08T03:05:34;73.47;;;35.00;;
71959;SDS011;59832;51.146;14.024;2024-03-08T03:08:01;68.87;;;33.90;;
71959;SDS011;59832;51.146;14.024;2024-03-08T03:10:27;65.47;;;33.60;;
71959;SDS011;59832;51.146;14.024;2024-03-08T03:12:54;66.25;;;33.35;;
71959;SDS011;59832;51.146;14.024;2024-03-08T03:15:20;69.30;;;34.28;;
71959;SDS011;59832;51.146;14.024;2024-03-08T03:17:47;65.50;;;35.10;;
71959;SDS011;59832;51.146;14.024;2024-03-08T03:20:15;66.35;;;34.08;;
71959;SDS011;59832;51.146;14.024;2024-03-08T03:22:49;68.63;;;33.65;;
71959;SDS011;59832;51.146;14.024;2024-03-08T03:25:21;71.00;;;34.63;;
71959;SDS011;59832;51.146;14.024;2024-03-08T03:27:59;66.05;;;33.45;;
71959;SDS011;59832;51.146;14.024;2024-03-08T03:30:26;68.70;;;34.88;;
71959;SDS011;59832;51.146;14.024;2024-03-08T03:32:57;68.00;;;34.42;;
71959;SDS011;59832;51.146;14.024;2024-03-08T03:35:27;69.43;;;35.60;;
71959;SDS011;59832;51.146;14.024;2024-03-08T03:40:38;72.18;;;35.45;;
71959;SDS011;59832;51.146;14.024;2024-03-08T03:43:06;71.55;;;36.10;;
71959;SDS011;59832;51.146;14.024;2024-03-08T03:48:02;77.57;;;35.88;;
71959;SDS011;59832;51.146;14.024;2024-03-08T03:50:30;77.93;;;36.70;;
71959;SDS011;59832;51.146;14.024;2024-03-08T03:52:57;70.03;;;35.67;;
71959;SDS011;59832;51.146;14.024;2024-03-08T03:57:51;69.73;;;34.87;;
71959;SDS011;59832;51.146;14.024;2024-03-08T04:00:18;76.05;;;36.38;;
71959;SDS011;59832;51.146;14.024;2024-03-08T04:02:45;71.15;;;35.90;;
71959;SDS011;59832;51.146;14.024;2024-03-08T04:05:13;74.78;;;37.72;;
71959;SDS011;59832;51.146;14.024;2024-03-08T04:07:39;81.03;;;37.33;;
71959;SDS011;59832;51.146;14.024;2024-03-08T04:10:06;80.68;;;39.17;;
71959;SDS011;59832;51.146;14.024;2024-03-08T04:12:35;77.97;;;38.25;;
71959;SDS011;59832;51.146;14.024;2024-03-08T04:15:01;78.50;;;38.23;;
71959;SDS011;59832;51.146;14.024;2024-03-08T04:17:28;79.37;;;38.60;;
71959;SDS011;59832;51.146;14.024;2024-03-08T04:19:55;83.10;;;39.10;;
71959;SDS011;59832;51.146;14.024;2024-03-08T04:22:21;79.38;;;39.03;;
71959;SDS011;59832;51.146;14.024;2024-03-08T04:24:48;75.13;;;37.00;;
71959;SDS011;59832;51.146;14.024;2024-03-08T04:27:15;78.60;;;38.63;;
71959;SDS011;59832;51.146;14.024;2024-03-08T04:29:41;79.80;;;39.33;;
71959;SDS011;59832;51.146;14.024;2024-03-08T04:32:09;72.72;;;36.75;;
71959;SDS011;59832;51.146;14.024;2024-03-08T04:34:35;74.93;;;38.25;;
71959;SDS011;59832;51.146;14.024;2024-03-08T04:37:02;80.50;;;38.75;;
71959;SDS011;59832;51.146;14.024;2024-03-08T04:39:31;84.68;;;39.35;;
71959;SDS011;59832;51.146;14.024;2024-03-08T04:41:59;77.15;;;37.83;;
71959;SDS011;59832;51.146;14.024;2024-03-08T04:44:33;75.90;;;39.17;;
71959;SDS011;59832;51.146;14.024;2024-03-08T04:47:00;82.30;;;37.80;;
71959;SDS011;59832;51.146;14.024;2024-03-08T04:49:27;77.97;;;38.88;;
71959;SDS011;59832;51.146;14.024;2024-03-08T04:51:54;81.60;;;38.42;;
71959;SDS011;59832;51.146;14.024;2024-03-08T04:54:21;80.07;;;38.78;;
71959;SDS011;59832;51.146;14.024;2024-03-08T04:56:47;77.53;;;38.63;;
71959;SDS011;59832;51.146;14.024;2024-03-08T04:59:15;78.18;;;40.75;;
71959;SDS011;59832;51.146;14.024;2024-03-08T05:01:41;76.97;;;38.47;;
71959;SDS011;59832;51.146;14.024;2024-03-08T05:04:07;74.10;;;38.03;;
71959;SDS011;59832;51.146;14.024;2024-03-08T05:06:35;78.82;;;38.97;;
71959;SDS011;59832;51.146;14.024;2024-03-08T05:09:03;86.38;;;40.92;;
71959;SDS011;59832;51.146;14.024;2024-03-08T05:11:40;80.43;;;38.60;;
71959;SDS011;59832;51.146;14.024;2024-03-08T05:14:07;78.88;;;39.90;;
71959;SDS011;59832;51.146;14.024;2024-03-08T05:16:33;74.70;;;38.25;;
71959;SDS011;59832;51.146;14.024;2024-03-08T05:19:00;79.55;;;38.67;;
71959;SDS011;59832;51.146;14.024;2024-03-08T05:21:27;82.03;;;39.13;;
71959;SDS011;59832;51.146;14.024;2024-03-08T05:23:55;82.38;;;38.70;;
71959;SDS011;59832;51.146;14.024;2024-03-08T05:26:21;77.10;;;38.17;;
71959;SDS011;59832;51.146;14.024;2024-03-08T05:28:48;79.95;;;38.42;;
71959;SDS011;59832;51.146;14.024;2024-03-08T05:31:21;83.68;;;39.38;;
71959;SDS011;59832;51.146;14.024;2024-03-08T05:33:51;83.25;;;39.45;;
71959;SDS011;59832;51.146;14.024;2024-03-08T05:36:17;81.53;;;38.57;;
71959;SDS011;59832;51.146;14.024;2024-03-08T05:38:44;80.85;;;39.03;;
71959;SDS011;59832;51.146;14.024;2024-03-08T05:41:10;82.57;;;40.50;;
71959;SDS011;59832;51.146;14.024;2024-03-08T05:43:40;110.80;;;51.63;;
71959;SDS011;59832;51.146;14.024;2024-03-08T05:46:07;88.03;;;43.15;;
71959;SDS011;59832;51.146;14.024;2024-03-08T05:48:34;90.50;;;43.67;;
71959;SDS011;59832;51.146;14.024;2024-03-08T05:51:01;84.73;;;40.63;;
71959;SDS011;59832;51.146;14.024;2024-03-08T05:53:28;83.22;;;39.42;;
71959;SDS011;59832;51.146;14.024;2024-03-08T05:55:58;86.90;;;41.00;;
71959;SDS011;59832;51.146;14.024;2024-03-08T05:58:25;97.53;;;44.13;;
71959;SDS011;59832;51.146;14.024;2024-03-08T06:00:51;91.43;;;47.10;;
71959;SDS011;59832;51.146;14.024;2024-03-08T06:03:19;85.32;;;43.08;;
71959;SDS011;59832;51.146;14.024;2024-03-08T06:05:48;93.13;;;42.30;;
71959;SDS011;59832;51.146;14.024;2024-03-08T06:08:15;87.25;;;40.72;;
71959;SDS011;59832;51.146;14.024;2024-03-08T06:10:42;87.75;;;40.45;;
71959;SDS011;59832;51.146;14.024;2024-03-08T06:13:10;84.82;;;41.15;;
71959;SDS011;59832;51.146;14.024;2024-03-08T06:15:38;80.82;;;40.60;;
71959;SDS011;59832;51.146;14.024;2024-03-08T06:18:05;81.38;;;41.08;;
71959;SDS011;59832;51.146;14.024;2024-03-08T06:20:32;91.13;;;42.90;;
71959;SDS011;59832;51.146;14.024;2024-03-08T06:22:59;91.50;;;43.13;;
71959;SDS011;59832;51.146;14.024;2024-03-08T06:25:26;86.10;;;41.70;;
71959;SDS011;59832;51.146;14.024;2024-03-08T06:27:52;80.00;;;40.10;;
71959;SDS011;59832;51.146;14.024;2024-03-08T06:30:19;78.78;;;41.08;;
71959;SDS011;59832;51.146;14.024;2024-03-08T06:32:47;83.00;;;39.33;;
71959;SDS011;59832;51.146;14.024;2024-03-08T06:35:14;77.57;;;39.13;;
71959;SDS011;59832;51.146;14.024;2024-03-08T06:37:42;73.22;;;38.30;;
71959;SDS011;59832;51.146;14.024;2024-03-08T06:40:10;71.53;;;37.38;;
71959;SDS011;59832;51.146;14.024;2024-03-08T06:42:40;78.88;;;39.50;;
71959;SDS011;59832;51.146;14.024;2024-03-08T06:45:07;73.07;;;36.88;;
71959;SDS011;59832;51.146;14.024;2024-03-08T06:47:36;74.03;;;37.45;;
71959;SDS011;59832;51.146;14.024;2024-03-08T06:50:03;67.43;;;34.97;;
71959;SDS011;59832;51.146;14.024;2024-03-08T06:52:30;70.70;;;36.17;;
71959;SDS011;59832;51.146;14.024;2024-03-08T06:54:57;74.57;;;36.80;;
71959;SDS011;59832;51.146;14.024;2024-03-08T06:57:24;65.70;;;34.70;;
71959;SDS011;59832;51.146;14.024;2024-03-08T06:59:50;71.45;;;35.25;;
71959;SDS011;59832;51.146;14.024;2024-03-08T07:02:18;70.18;;;35.67;;
71959;SDS011;59832;51.146;14.024;2024-03-08T07:04:45;67.25;;;33.28;;
71959;SDS011;59832;51.146;14.024;2024-03-08T07:07:11;66.82;;;34.85;;
71959;SDS011;59832;51.146;14.024;2024-03-08T07:09:38;62.05;;;33.20;;
71959;SDS011;59832;51.146;14.024;2024-03-08T07:12:05;62.67;;;33.55;;
71959;SDS011;59832;51.146;14.024;2024-03-08T07:14:31;64.95;;;33.20;;
71959;SDS011;59832;51.146;14.024;2024-03-08T07:16:58;55.70;;;30.97;;
71959;SDS011;59832;51.146;14.024;2024-03-08T07:19:24;59.38;;;31.70;;
71959;SDS011;59832;51.146;14.024;2024-03-08T07:21:51;59.60;;;31.38;;
71959;SDS011;59832;51.146;14.024;2024-03-08T07:24:17;56.88;;;29.80;;
71959;SDS011;59832;51.146;14.024;2024-03-08T07:26:44;56.93;;;30.23;;
71959;SDS011;59832;51.146;14.024;2024-03-08T07:29:11;53.00;;;29.30;;
71959;SDS011;59832;51.146;14.024;2024-03-08T07:31:37;52.42;;;28.52;;
71959;SDS011;59832;51.146;14.024;2024-03-08T07:34:04;50.13;;;27.95;;
71959;SDS011;59832;51.146;14.024;2024-03-08T07:36:34;50.28;;;27.20;;
71959;SDS011;59832;51.146;14.024;2024-03-08T07:39:03;49.85;;;26.88;;
71959;SDS011;59832;51.146;14.024;2024-03-08T07:41:38;47.97;;;28.02;;
71959;SDS011;59832;51.146;14.024;2024-03-08T07:44:06;50.80;;;26.95;;
71959;SDS011;59832;51.146;14.024;2024-03-08T07:46:33;47.03;;;26.13;;
71959;SDS011;59832;51.146;14.024;2024-03-08T07:49:00;46.78;;;26.33;;
71959;SDS011;59832;51.146;14.024;2024-03-08T07:51:27;47.78;;;25.35;;
71959;SDS011;59832;51.146;14.024;2024-03-08T07:53:53;51.97;;;27.50;;
71959;SDS011;59832;51.146;14.024;2024-03-08T07:56:26;44.63;;;25.35;;
71959;SDS011;59832;51.146;14.024;2024-03-08T07:58:52;48.67;;;25.30;;
71959;SDS011;59832;51.146;14.024;2024-03-08T08:01:19;44.95;;;25.67;;
71959;SDS011;59832;51.146;14.024;2024-03-08T08:03:46;40.75;;;24.58;;
71959;SDS011;59832;51.146;14.024;2024-03-08T08:06:15;41.47;;;25.15;;
71959;SDS011;59832;51.146;14.024;2024-03-08T08:08:42;44.50;;;25.05;;
71959;SDS011;59832;51.146;14.024;2024-03-08T08:11:09;46.33;;;25.88;;
71959;SDS011;59832;51.146;14.024;2024-03-08T08:13:37;45.03;;;23.63;;
71959;SDS011;59832;51.146;14.024;2024-03-08T08:16:04;44.28;;;24.40;;
71959;SDS011;59832;51.146;14.024;2024-03-08T08:18:32;48.45;;;24.73;;
71959;SDS011;59832;51.146;14.024;2024-03-08T08:20:59;43.03;;;25.10;;
71959;SDS011;59832;51.146;14.024;2024-03-08T08:23:28;45.50;;;24.33;;
71959;SDS011;59832;51.146;14.024;2024-03-08T08:25:56;44.15;;;25.23;;
71959;SDS011;59832;51.146;14.024;2024-03-08T08:28:22;44.95;;;23.58;;
71959;SDS011;59832;51.146;14.024;2024-03-08T08:30:49;42.28;;;24.48;;
71959;SDS011;59832;51.146;14.024;2024-03-08T08:33:16;50.25;;;26.58;;
71959;SDS011;59832;51.146;14.024;2024-03-08T08:35:43;43.58;;;24.42;;
71959;SDS011;59832;51.146;14.024;2024-03-08T08:38:10;40.90;;;24.92;;
71959;SDS011;59832;51.146;14.024;2024-03-08T08:40:36;44.03;;;25.23;;
71959;SDS011;59832;51.146;14.024;2024-03-08T08:43:03;47.45;;;25.65;;
71959;SDS011;59832;51.146;14.024;2024-03-08T08:45:31;46.90;;;25.02;;
71959;SDS011;59832;51.146;14.024;2024-03-08T08:47:57;44.53;;;25.13;;
71959;SDS011;59832;51.146;14.024;2024-03-08T08:50:26;45.65;;;26.23;;
71959;SDS011;59832;51.146;14.024;2024-03-08T08:52:55;44.75;;;25.10;;
71959;SDS011;59832;51.146;14.024;2024-03-08T08:55:21;51.88;;;26.70;;
71959;SDS011;59832;51.146;14.024;2024-03-08T08:57:52;43.10;;;26.10;;
71959;SDS011;59832;51.146;14.024;2024-03-08T09:00:19;46.83;;;26.83;;
71959;SDS011;59832;51.146;14.024;2024-03-08T09:05:14;51.28;;;27.38;;
71959;SDS011;59832;51.146;14.024;2024-03-08T09:07:43;47.63;;;27.20;;
71959;SDS011;59832;51.146;14.024;2024-03-08T09:10:11;51.03;;;29.17;;
71959;SDS011;59832;51.146;14.024;2024-03-08T09:12:41;53.75;;;28.30;;
71959;SDS011;59832;51.146;14.024;2024-03-08T09:15:07;47.95;;;27.77;;
71959;SDS011;59832;51.146;14.024;2024-03-08T09:17:37;46.53;;;28.23;;
71959;SDS011;59832;51.146;14.024;2024-03-08T09:20:08;53.70;;;29.35;;
71959;SDS011;59832;51.146;14.024;2024-03-08T09:22:36;48.08;;;28.58;;
71959;SDS011;59832;51.146;14.024;2024-03-08T09:25:03;54.53;;;29.67;;
71959;SDS011;59832;51.146;14.024;2024-03-08T09:27:31;47.97;;;27.70;;
71959;SDS011;59832;51.146;14.024;2024-03-08T09:29:57;54.90;;;30.42;;
71959;SDS011;59832;51.146;14.024;2024-03-08T09:32:24;49.28;;;28.70;;
71959;SDS011;59832;51.146;14.024;2024-03-08T09:34:50;51.05;;;29.27;;
71959;SDS011;59832;51.146;14.024;2024-03-08T09:37:17;50.22;;;28.35;;
71959;SDS011;59832;51.146;14.024;2024-03-08T09:39:43;49.65;;;29.13;;
71959;SDS011;59832;51.146;14.024;2024-03-08T09:42:10;49.83;;;29.95;;
71959;SDS011;59832;51.146;14.024;2024-03-08T09:44:44;56.95;;;30.48;;
71959;SDS011;59832;51.146;14.024;2024-03-08T09:47:15;53.33;;;30.45;;
71959;SDS011;59832;51.146;14.024;2024-03-08T09:49:42;54.35;;;29.90;;
71959;SDS011;59832;51.146;14.024;2024-03-08T09:52:09;52.40;;;31.20;;
71959;SDS011;59832;51.146;14.024;2024-03-08T09:54:36;54.65;;;30.58;;
71959;SDS011;59832;51.146;14.024;2024-03-08T09:57:06;52.30;;;29.27;;
71959;SDS011;59832;51.146;14.024;2024-03-08T09:59:34;47.63;;;28.35;;
71959;SDS011;59832;51.146;14.024;2024-03-08T10:02:03;50.25;;;29.13;;
71959;SDS011;59832;51.146;14.024;2024-03-08T10:04:31;46.25;;;27.50;;
71959;SDS011;59832;51.146;14.024;2024-03-08T10:06:59;52.42;;;28.25;;
71959;SDS011;59832;51.146;14.024;2024-03-08T10:09:27;52.83;;;29.08;;
71959;SDS011;59832;51.146;14.024;2024-03-08T10:11:57;50.72;;;27.80;;
71959;SDS011;59832;51.146;14.024;2024-03-08T10:14:26;51.33;;;29.00;;
71959;SDS011;59832;51.146;14.024;2024-03-08T10:16:53;51.70;;;28.65;;
71959;SDS011;59832;51.146;14.024;2024-03-08T10:19:20;51.83;;;28.67;;
71959;SDS011;59832;51.146;14.024;2024-03-08T10:21:53;48.55;;;28.60;;
71959;SDS011;59832;51.146;14.024;2024-03-08T10:24:20;45.42;;;26.58;;
71959;SDS011;59832;51.146;14.024;2024-03-08T10:26:53;47.83;;;27.52;;
71959;SDS011;59832;51.146;14.024;2024-03-08T10:29:31;45.90;;;27.15;;
71959;SDS011;59832;51.146;14.024;2024-03-08T10:34:25;53.45;;;27.98;;
71959;SDS011;59832;51.146;14.024;2024-03-08T10:36:52;46.53;;;26.55;;
71959;SDS011;59832;51.146;14.024;2024-03-08T10:39:22;43.15;;;26.20;;
71959;SDS011;59832;51.146;14.024;2024-03-08T10:41:58;48.53;;;28.15;;
71959;SDS011;59832;51.146;14.024;2024-03-08T10:47:02;50.65;;;29.95;;
71959;SDS011;59832;51.146;14.024;2024-03-08T10:49:59;46.75;;;28.35;;
71959;SDS011;59832;51.146;14.024;2024-03-08T10:52:49;53.00;;;29.67;;
71959;SDS011;59832;51.146;14.024;2024-03-08T10:55:19;54.50;;;28.77;;
71959;SDS011;59832;51.146;14.024;2024-03-08T10:57:49;46.17;;;27.40;;
71959;SDS011;59832;51.146;14.024;2024-03-08T11:00:15;46.38;;;27.77;;
71959;SDS011;59832;51.146;14.024;2024-03-08T11:02:45;45.28;;;28.23;;
71959;SDS011;59832;51.146;14.024;2024-03-08T11:08:20;49.58;;;28.45;;
71959;SDS011;59832;51.146;14.024;2024-03-08T11:10:47;52.92;;;29.35;;
71959;SDS011;59832;51.146;14.024;2024-03-08T11:13:32;54.92;;;29.50;;
71959;SDS011;59832;51.146;14.024;2024-03-08T11:15:59;50.75;;;29.40;;
71959;SDS011;59832;51.146;14.024;2024-03-08T11:18:26;53.72;;;30.73;;
71959;SDS011;59832;51.146;14.024;2024-03-08T11:20:56;54.00;;;27.50;;
71959;SDS011;59832;51.146;14.024;2024-03-08T11:23:24;47.78;;;28.42;;
71959;SDS011;59832;51.146;14.024;2024-03-08T11:25:52;47.30;;;27.73;;
71959;SDS011;59832;51.146;14.024;2024-03-08T11:28:20;49.83;;;29.10;;
71959;SDS011;59832;51.146;14.024;2024-03-08T11:33:28;45.97;;;28.27;;
71959;SDS011;59832;51.146;14.024;2024-03-08T11:36:10;51.00;;;28.08;;
71959;SDS011;59832;51.146;14.024;2024-03-08T11:38:43;47.67;;;28.10;;
71959;SDS011;59832;51.146;14.024;2024-03-08T11:41:10;45.30;;;27.60;;
71959;SDS011;59832;51.146;14.024;2024-03-08T11:43:44;47.15;;;28.08;;
71959;SDS011;59832;51.146;14.024;2024-03-08T11:46:15;47.10;;;27.60;;
71959;SDS011;59832;51.146;14.024;2024-03-08T11:48:44;48.25;;;28.25;;
71959;SDS011;59832;51.146;14.024;2024-03-08T11:51:14;44.35;;;27.73;;
71959;SDS011;59832;51.146;14.024;2024-03-08T11:53:41;46.40;;;27.20;;
71959;SDS011;59832;51.146;14.024;2024-03-08T11:56:13;47.65;;;26.45;;
71959;SDS011;59832;51.146;14.024;2024-03-08T11:58:40;58.30;;;30.60;;
71959;SDS011;59832;51.146;14.024;2024-03-08T12:01:08;56.63;;;30.58;;
71959;SDS011;59832;51.146;14.024;2024-03-08T12:03:40;47.50;;;28.30;;
71959;SDS011;59832;51.146;14.024;2024-03-08T12:06:09;49.30;;;28.90;;
71959;SDS011;59832;51.146;14.024;2024-03-08T12:08:36;42.30;;;25.85;;
71959;SDS011;59832;51.146;14.024;2024-03-08T12:11:06;47.53;;;28.88;;
71959;SDS011;59832;51.146;14.024;2024-03-08T12:13:33;95.45;;;49.45;;
71959;SDS011;59832;51.146;14.024;2024-03-08T12:18:33;61.40;;;35.63;;
71959;SDS011;59832;51.146;14.024;2024-03-08T12:21:08;63.30;;;32.20;;
71959;SDS011;59832;51.146;14.024;2024-03-08T12:23:47;42.47;;;25.40;;
71959;SDS011;59832;51.146;14.024;2024-03-08T12:26:29;41.38;;;24.70;;
71959;SDS011;59832;51.146;14.024;2024-03-08T12:29:00;43.65;;;25.65;;
71959;SDS011;59832;51.146;14.024;2024-03-08T12:31:41;39.85;;;24.27;;
71959;SDS011;59832;51.146;14.024;2024-03-08T12:34:08;39.45;;;23.92;;
71959;SDS011;59832;51.146;14.024;2024-03-08T12:36:36;42.67;;;26.05;;
71959;SDS011;59832;51.146;14.024;2024-03-08T12:39:02;46.30;;;28.33;;
71959;SDS011;59832;51.146;14.024;2024-03-08T12:41:30;40.28;;;24.42;;
71959;SDS011;59832;51.146;14.024;2024-03-08T12:43:56;43.70;;;25.90;;
71959;SDS011;59832;51.146;14.024;2024-03-08T12:46:23;40.20;;;25.50;;
71959;SDS011;59832;51.146;14.024;2024-03-08T12:48:53;46.78;;;26.17;;
71959;SDS011;59832;51.146;14.024;2024-03-08T12:51:20;44.28;;;27.05;;
71959;SDS011;59832;51.146;14.024;2024-03-08T12:53:47;46.20;;;26.25;;
71959;SDS011;59832;51.146;14.024;2024-03-08T12:56:16;40.85;;;24.67;;
71959;SDS011;59832;51.146;14.024;2024-03-08T12:58:54;37.78;;;23.67;;
71959;SDS011;59832;51.146;14.024;2024-03-08T13:01:21;49.63;;;29.52;;
71959;SDS011;59832;51.146;14.024;2024-03-08T13:03:49;63.97;;;34.30;;
71959;SDS011;59832;51.146;14.024;2024-03-08T13:06:19;52.80;;;30.85;;
71959;SDS011;59832;51.146;14.024;2024-03-08T13:08:47;41.40;;;23.60;;
71959;SDS011;59832;51.146;14.024;2024-03-08T13:11:14;42.72;;;24.88;;
71959;SDS011;59832;51.146;14.024;2024-03-08T13:13:41;37.08;;;23.27;;
71959;SDS011;59832;51.146;14.024;2024-03-08T13:16:08;35.00;;;22.40;;
71959;SDS011;59832;51.146;14.024;2024-03-08T13:18:38;49.38;;;26.40;;
71959;SDS011;59832;51.146;14.024;2024-03-08T13:21:04;39.75;;;22.23;;
71959;SDS011;59832;51.146;14.024;2024-03-08T13:23:34;36.10;;;22.85;;
71959;SDS011;59832;51.146;14.024;2024-03-08T13:26:06;37.53;;;23.73;;
71959;SDS011;59832;51.146;14.024;2024-03-08T13:28:33;40.63;;;24.80;;
71959;SDS011;59832;51.146;14.024;2024-03-08T13:31:06;39.95;;;22.98;;
71959;SDS011;59832;51.146;14.024;2024-03-08T13:33:33;38.08;;;23.48;;
71959;SDS011;59832;51.146;14.024;2024-03-08T13:36:03;36.38;;;23.00;;
71959;SDS011;59832;51.146;14.024;2024-03-08T13:38:34;40.30;;;23.40;;
71959;SDS011;59832;51.146;14.024;2024-03-08T13:41:02;35.72;;;21.55;;
71959;SDS011;59832;51.146;14.024;2024-03-08T13:43:29;36.50;;;22.95;;
71959;SDS011;59832;51.146;14.024;2024-03-08T13:45:58;41.00;;;23.63;;
71959;SDS011;59832;51.146;14.024;2024-03-08T13:48:25;37.87;;;22.73;;
71959;SDS011;59832;51.146;14.024;2024-03-08T13:50:51;39.13;;;22.85;;
71959;SDS011;59832;51.146;14.024;2024-03-08T13:53:18;38.20;;;22.58;;
71959;SDS011;59832;51.146;14.024;2024-03-08T13:55:44;38.40;;;22.63;;
71959;SDS011;59832;51.146;14.024;2024-03-08T13:58:11;40.93;;;23.23;;
71959;SDS011;59832;51.146;14.024;2024-03-08T14:00:40;39.28;;;22.85;;
71959;SDS011;59832;51.146;14.024;2024-03-08T14:03:10;37.00;;;21.92;;
71959;SDS011;59832;51.146;14.024;2024-03-08T14:05:40;34.80;;;22.67;;
71959;SDS011;59832;51.146;14.024;2024-03-08T14:08:08;39.70;;;23.98;;
71959;SDS011;59832;51.146;14.024;2024-03-08T14:10:35;38.22;;;23.17;;
71959;SDS011;59832;51.146;14.024;2024-03-08T14:13:04;39.50;;;22.95;;
71959;SDS011;59832;51.146;14.024;2024-03-08T14:15:33;39.00;;;24.23;;
71959;SDS011;59832;51.146;14.024;2024-03-08T14:18:08;42.03;;;24.05;;
71959;SDS011;59832;51.146;14.024;2024-03-08T14:20:34;38.05;;;23.27;;
71959;SDS011;59832;51.146;14.024;2024-03-08T14:23:01;43.17;;;24.70;;
71959;SDS011;59832;51.146;14.024;2024-03-08T14:25:27;37.43;;;23.43;;
71959;SDS011;59832;51.146;14.024;2024-03-08T14:27:56;38.58;;;23.45;;
71959;SDS011;59832;51.146;14.024;2024-03-08T14:30:30;38.25;;;24.27;;
71959;SDS011;59832;51.146;14.024;2024-03-08T14:33:01;36.25;;;22.83;;
71959;SDS011;59832;51.146;14.024;2024-03-08T14:35:29;45.53;;;28.05;;
71959;SDS011;59832;51.146;14.024;2024-03-08T14:37:56;39.55;;;23.90;;